Date,TemperatureHighF,TemperatureAvgF,TemperatureLowF,DewpointHighF,DewpointAvgF,DewpointLowF,HumidityHigh,HumidityAvg,HumidityLow,PressureMaxIn,PressureMinIn,WindSpeedMaxMPH,WindSpeedAvgMPH,GustSpeedMaxMPH,PrecipitationSumIn
2013-1-1,33,31,24,31,27,17,94,88,77,30.12,30.00,1,0,4,0.02
2013-1-2,29,22,16,19,16,13,90,78,63,30.30,30.10,2,0,5,0.01
2013-1-3,35,22,8,24,16,5,92,79,61,30.31,30.19,2,0,7,0.08
2013-1-4,36,30,26,25,23,20,81,74,62,30.30,30.18,2,0,8,0.04
2013-1-5,37,30,24,28,24,19,85,77,64,30.44,30.19,2,0,7,0.12
2013-1-6,39,35,31,32,30,27,92,82,70,30.24,30.03,1,0,3,0.12
2013-1-7,36,31,21,30,27,19,94,83,70,30.50,30.24,1,0,5,0.05
2013-1-8,46,28,16,33,24,14,93,85,58,30.43,30.31,1,0,4,0.11
2013-1-9,46,33,22,42,31,20,96,91,81,30.52,30.27,1,0,8,0.03
2013-1-10,41,35,26,32,29,24,96,81,66,30.65,30.33,1,0,3,0.00
2013-1-11,50,45,36,49,41,30,96,86,65,30.33,29.99,1,0,5,0.18
2013-1-12,62,50,41,58,49,40,97,95,83,30.11,29.96,1,0,3,0.01
2013-1-13,70,58,49,58,54,48,97,85,63,29.96,29.85,2,0,8,0.18
2013-1-14,58,40,32,56,34,25,95,78,61,30.38,29.88,2,0,8,0.02
2013-1-15,34,30,25,29,25,22,90,80,71,30.43,30.12,1,0,4,0.00
2013-1-16,35,33,32,34,32,29,95,94,90,30.12,29.93,1,0,3,0.23
2013-1-17,35,33,31,31,29,28,92,86,80,30.22,30.05,1,0,2,0.02
2013-1-18,32,28,20,29,18,10,88,67,50,30.55,30.19,2,1,11,0.01
2013-1-19,54,41,28,28,24,18,77,52,30,30.31,29.86,2,0,10,0.11
2013-1-20,45,36,25,33,22,14,66,56,43,30.17,29.80,3,1,10,0.00
2013-1-21,28,23,14,22,14,4,83,69,61,30.14,29.95,2,0,8,0.00
2013-1-22,16,12,8,8,2,-1,81,66,53,30.35,30.11,3,1,8,0.00
2013-1-23,18,13,6,11,4,0,80,67,52,30.39,30.15,2,0,7,0.00
2013-1-24,24,17,10,13,8,-1,88,69,37,30.61,30.13,3,0,8,0.00
2013-1-25,20,16,11,17,11,5,88,80,65,30.60,30.09,1,0,5,0.00
2013-1-26,30,23,12,24,19,9,91,83,72,30.51,30.16,1,0,5,0.03
2013-1-27,32,22,7,24,15,4,92,76,55,30.61,30.38,1,0,4,0.07
2013-1-28,47,39,31,46,37,22,97,93,68,30.39,30.05,1,0,3,0.52
2013-1-29,64,53,47,57,50,46,97,91,75,30.08,29.79,1,0,8,0.02
2013-1-30,68,57,48,58,52,45,95,86,64,29.80,29.22,3,1,9,0.98
2013-1-31,48,30,24,45,24,14,93,77,58,29.89,29.21,3,1,11,0.03
2013-2-1,24,18,11,21,10,4,88,72,62,30.41,29.86,2,1,8,0.00
2013-2-2,25,18,9,22,14,5,92,83,74,30.40,30.03,2,0,5,0.00
2013-2-3,29,24,20,24,20,14,92,84,71,30.08,29.87,2,0,9,0.01
2013-2-4,29,24,18,25,19,12,92,82,65,30.13,29.91,2,0,5,0.01
2013-2-5,33,29,27,30,27,25,94,92,86,29.99,29.86,0,0,1,0.00
2013-2-6,34,28,16,27,23,14,94,83,63,30.38,29.99,2,0,6,0.00
2013-2-7,43,29,14,30,23,12,93,78,59,30.37,30.02,2,0,5,0.06
2013-2-8,39,33,27,37,29,22,95,84,77,30.18,29.83,3,1,9,1.27
2013-2-9,35,26,19,22,19,16,90,75,53,30.45,30.18,3,1,7,10.59
2013-2-10,53,33,15,31,20,13,93,64,27,30.42,30.00,2,0,5,29.88
2013-2-11,64,47,38,50,36,26,96,69,34,30.01,29.66,3,1,13,0.08
2013-2-12,43,36,26,30,27,23,89,70,56,30.09,29.93,2,0,6,0.00
2013-2-13,40,31,22,33,27,20,94,87,64,29.96,29.72,1,0,2,0.01
2013-2-14,43,35,29,36,31,27,95,85,69,30.00,29.89,2,0,8,0.08
2013-2-15,41,36,28,36,30,25,93,80,63,30.08,29.94,2,0,6,0.00
2013-2-16,31,26,19,24,20,16,88,76,55,30.08,29.96,1,0,6,0.03
2013-2-17,25,21,14,20,14,8,90,76,59,30.32,29.96,2,1,9,0.01
2013-2-18,43,24,5,30,15,2,90,72,43,30.39,29.94,3,0,7,0.03
2013-2-19,44,36,26,40,30,17,92,81,64,29.97,29.70,3,1,13,0.15
2013-2-20,26,22,20,19,15,11,86,74,59,30.27,29.97,2,1,8,0.00
2013-2-21,26,22,19,18,16,14,85,76,64,30.41,30.24,1,0,5,0.01
2013-2-22,38,31,22,34,26,15,92,80,59,30.34,30.04,3,0,8,0.01
2013-2-23,45,36,28,38,32,27,94,86,73,30.05,29.89,1,0,3,0.00
2013-2-24,33,30,25,27,25,22,95,82,66,30.19,29.89,2,0,7,0.00
2013-2-25,42,32,21,27,24,19,94,73,50,30.28,30.09,2,0,6,0.00
2013-2-26,41,36,27,36,29,22,93,77,54,30.12,29.61,4,1,9,0.65
2013-2-27,45,40,34,41,37,32,95,90,78,29.70,29.58,1,0,7,0.20
2013-2-28,35,34,33,33,32,30,94,90,84,29.83,29.65,1,0,4,0.08
2013-3-1,33,31,27,31,26,21,93,83,76,30.01,29.83,2,0,7,0.01
2013-3-2,31,27,26,24,22,20,89,81,71,30.00,29.94,2,0,5,0.01
2013-3-3,30,27,24,24,22,19,90,80,70,30.05,29.96,2,0,6,0.01
2013-3-4,39,28,23,25,20,16,89,73,49,30.17,30.05,2,0,6,0.01
2013-3-5,45,33,18,28,19,14,92,60,28,30.15,29.72,4,1,13,0.00
2013-3-6,42,36,32,34,31,28,94,84,62,30.14,29.72,4,0,9,0.45
2013-3-7,43,36,33,32,30,28,89,79,57,30.31,30.13,2,0,7,0.01
2013-3-8,40,34,26,30,28,24,92,79,65,30.45,30.31,2,0,8,0.00
2013-3-9,53,36,22,35,27,20,95,73,38,30.45,30.22,3,0,5,0.01
2013-3-10,70,52,32,37,33,28,86,54,24,30.22,30.01,2,0,8,0.00
2013-3-11,64,55,46,49,37,30,88,53,30,30.02,29.69,3,1,10,0.11
2013-3-12,51,41,37,47,36,29,93,82,70,30.02,29.76,2,0,7,0.13
2013-3-13,39,33,29,32,27,20,91,80,63,30.17,29.94,3,1,9,0.04
2013-3-14,39,31,26,23,21,18,79,65,46,30.25,30.16,3,1,9,0.00
2013-3-15,51,38,23,37,28,20,89,70,50,30.18,29.84,2,0,5,0.01
2013-3-16,40,37,35,38,35,32,93,91,86,29.99,29.65,1,0,4,0.05
2013-3-17,37,33,29,32,25,22,89,73,58,30.23,29.99,1,0,6,0.00
2013-3-18,41,35,31,37,30,23,91,82,67,30.21,29.73,4,1,13,0.31
2013-3-19,49,39,30,41,29,18,95,70,38,29.99,29.72,4,1,13,0.05
2013-3-20,43,33,25,25,20,17,80,60,40,30.01,29.85,3,1,8,0.00
2013-3-21,32,26,20,22,15,9,86,64,45,29.95,29.89,2,0,6,0.00
2013-3-22,36,29,23,23,21,19,87,70,55,30.07,29.94,2,0,7,0.00
2013-3-23,46,32,18,27,22,16,92,70,41,30.09,30.02,2,0,7,0.00
2013-3-24,46,34,26,30,24,21,86,67,43,30.04,29.57,4,1,10,0.00
2013-3-25,39,34,32,35,32,30,94,92,83,29.77,29.49,2,0,7,0.47
2013-3-26,44,37,32,34,32,30,95,83,63,30.10,29.77,2,0,7,0.02
2013-3-27,45,37,33,34,31,26,94,81,51,30.18,30.08,2,0,8,0.06
2013-3-28,45,39,35,34,32,30,89,76,59,30.29,30.15,2,0,9,0.01
2013-3-29,55,43,35,35,30,22,89,64,31,30.30,30.17,2,0,9,0.00
2013-3-30,55,40,24,34,26,21,92,61,30,30.29,30.06,2,0,5,0.00
2013-3-31,50,43,34,47,38,27,94,83,66,30.06,29.75,2,0,4,0.10
2013-4-1,45,41,33,43,30,14,95,69,34,30.04,29.72,3,1,10,0.05
2013-4-2,42,33,27,22,19,15,75,57,36,30.22,30.04,2,0,8,0.00
2013-4-3,42,31,23,24,17,10,83,58,33,30.46,30.22,3,1,10,0.00
2013-4-4,56,37,18,29,17,9,86,52,16,30.44,30.00,2,0,7,0.00
2013-4-5,57,42,26,34,25,20,84,55,30,30.20,29.96,3,1,9,0.00
2013-4-6,58,42,23,31,20,10,88,49,15,30.33,30.05,2,0,8,0.00
2013-4-7,74,61,51,48,38,20,69,43,29,30.05,29.87,3,1,9,0.00
2013-4-8,76,61,46,51,46,40,84,60,35,30.04,29.88,2,0,7,0.00
2013-4-9,80,68,54,58,53,48,88,60,41,30.09,29.88,2,0,7,0.00
2013-4-10,81,67,59,67,58,52,94,76,49,29.97,29.77,4,0,7,0.62
2013-4-11,77,64,54,64,57,51,97,80,56,29.88,29.59,3,0,11,0.01
2013-4-12,66,58,46,61,51,35,94,77,55,29.85,29.49,4,1,11,0.55
2013-4-13,55,46,38,38,35,32,85,66,47,30.04,29.84,2,0,9,0.00
2013-4-14,62,48,30,41,33,27,92,59,36,30.19,30.03,2,0,5,0.00
2013-4-15,68,61,54,51,46,36,70,58,48,30.11,29.99,4,1,11,0.00
2013-4-16,79,64,51,61,54,48,94,73,52,30.18,30.02,4,0,9,0.56
2013-4-17,68,59,52,57,53,47,95,81,60,30.25,30.09,2,0,5,0.00
2013-4-18,84,72,59,63,58,54,89,63,40,30.11,29.75,4,1,11,0.00
2013-4-19,72,60,45,62,49,32,87,69,54,29.85,29.46,3,1,11,0.14
2013-4-20,50,42,33,34,29,24,82,61,42,30.43,29.85,3,1,9,0.01
2013-4-21,52,40,26,30,24,18,91,58,27,30.64,30.43,3,1,9,0.00
2013-4-22,62,51,41,35,28,21,65,41,24,30.50,30.30,4,1,8,0.00
2013-4-23,70,55,35,43,36,31,88,53,26,30.30,29.97,2,0,7,0.00
2013-4-24,72,55,41,58,46,35,92,73,49,30.17,29.75,3,1,9,0.26
2013-4-25,59,47,34,40,34,29,94,66,34,30.38,30.17,4,1,11,0.00
2013-4-26,60,47,34,41,34,26,95,66,29,30.49,30.37,2,0,6,0.00
2013-4-27,73,56,32,40,35,30,93,53,23,30.42,30.17,3,1,8,0.00
2013-4-28,61,56,52,53,47,39,89,72,45,30.17,29.95,2,1,9,0.18
2013-4-29,65,58,53,58,53,48,94,84,72,30.03,29.94,2,0,7,0.14
2013-4-30,73,61,50,57,52,49,96,74,53,30.19,30.03,4,1,9,0.00
2013-5-1,76,64,53,54,47,34,83,56,31,30.31,30.19,3,1,7,0.00
2013-5-2,77,63,46,44,37,29,80,43,19,30.36,30.20,4,1,12,0.00
2013-5-3,74,61,41,47,41,32,90,52,26,30.26,30.16,5,1,12,0.00
2013-5-4,70,58,46,46,41,35,70,55,30,30.22,30.08,4,1,10,0.00
2013-5-5,73,60,42,43,35,20,91,46,14,30.16,30.02,5,1,12,0.00
2013-5-6,71,59,43,54,46,36,84,63,46,30.09,30.00,4,1,11,0.00
2013-5-7,70,62,57,58,54,52,90,76,56,30.03,29.94,3,1,8,0.05
2013-5-8,72,63,53,56,52,46,94,70,39,29.99,29.88,3,0,6,0.19
2013-5-9,74,62,52,62,54,50,96,78,46,29.99,29.90,2,0,8,0.02
2013-5-10,76,61,53,65,57,50,95,88,62,30.00,29.80,3,0,9,0.66
2013-5-11,61,57,49,59,54,48,96,91,81,29.84,29.76,1,0,4,0.16
2013-5-12,56,49,38,50,36,29,95,62,39,30.06,29.82,3,1,9,0.00
2013-5-13,55,44,32,35,30,22,93,61,34,30.20,30.06,3,1,9,0.00
2013-5-14,61,46,29,44,35,27,94,67,43,30.23,29.92,2,0,6,0.00
2013-5-15,85,66,47,67,56,42,94,72,46,29.92,29.71,3,0,9,0.01
2013-5-16,78,68,59,64,58,48,95,72,36,29.97,29.75,2,0,8,0.15
2013-5-17,80,66,53,63,57,51,96,75,41,30.10,29.96,2,0,8,0.00
2013-5-18,82,68,52,63,55,48,90,67,40,30.13,30.01,2,0,7,0.00
2013-5-19,77,68,58,65,60,55,93,76,62,30.10,29.97,3,1,9,0.00
2013-5-20,84,72,59,70,64,57,96,78,56,30.03,29.89,2,0,5,0.00
2013-5-21,87,74,64,72,67,62,96,78,54,29.95,29.80,2,0,6,0.02
2013-5-22,86,71,62,69,64,60,95,81,50,29.88,29.74,3,1,10,0.70
2013-5-23,78,65,52,67,61,49,96,88,53,29.88,29.76,4,0,11,0.96
2013-5-24,52,46,40,49,40,32,93,79,58,30.30,29.88,3,1,8,0.04
2013-5-25,62,48,34,42,36,32,95,68,37,30.34,30.24,3,1,10,0.00
2013-5-26,66,52,35,43,38,32,94,63,34,30.31,30.22,3,1,9,0.00
2013-5-27,63,53,38,51,44,36,95,72,50,30.29,30.11,2,0,3,0.00
2013-5-28,78,65,54,69,60,49,96,84,67,30.11,29.98,2,0,8,0.19
2013-5-29,85,73,63,69,63,60,92,73,50,30.08,30.00,3,0,10,0.00
2013-5-30,87,72,58,72,64,57,96,76,44,30.17,30.06,2,0,5,0.00
2013-5-31,88,74,61,70,65,59,96,75,49,30.11,29.96,2,0,6,0.00
2013-6-1,87,76,66,71,66,62,93,73,53,30.00,29.78,2,0,8,0.02
2013-6-2,81,73,64,69,64,59,94,76,51,29.84,29.76,2,0,7,0.07
2013-6-3,66,64,62,60,58,50,87,82,66,29.97,29.84,1,0,5,0.00
2013-6-4,66,59,53,52,50,48,85,72,53,30.15,30.11,0,0,0,0.00
2013-6-5,81,63,48,64,53,46,93,71,49,30.15,29.92,2,0,5,0.00
2013-6-6,70,65,62,66,62,58,95,91,75,29.93,29.76,1,0,6,1.06
2013-6-7,66,63,60,63,61,55,96,91,83,29.84,29.73,1,0,4,0.00
2013-6-8,71,62,56,60,56,53,93,81,60,30.11,29.84,1,0,4,0.00
2013-6-9,83,70,55,66,60,53,96,73,46,30.17,30.00,2,0,7,0.00
2013-6-10,77,69,64,71,66,63,95,91,78,30.01,29.76,2,0,5,0.98
2013-6-11,76,68,63,69,64,62,96,88,68,29.87,29.77,2,0,7,0.02
2013-6-12,84,72,61,71,66,60,97,83,53,29.90,29.72,2,0,8,0.00
2013-6-13,72,67,61,71,63,56,95,87,78,29.77,29.51,4,1,11,1.02
2013-6-14,72,63,55,61,57,53,95,82,59,30.05,29.77,2,0,5,0.00
2013-6-15,78,65,50,59,54,46,97,72,35,30.14,30.00,2,0,5,0.00
2013-6-16,74,67,62,69,64,57,95,89,79,30.02,29.89,1,0,4,0.37
2013-6-17,84,72,65,68,64,58,96,78,45,29.97,29.87,2,0,5,0.02
2013-6-18,78,68,62,68,63,60,94,86,65,29.94,29.82,0,0,3,0.02
2013-6-19,76,65,55,60,54,46,90,70,38,30.14,29.93,2,0,7,0.00
2013-6-20,81,66,49,61,54,47,96,70,37,30.23,30.14,2,0,5,0.00
2013-6-21,84,70,54,65,58,52,96,71,38,30.25,30.14,2,0,4,0.00
2013-6-22,86,72,58,73,65,56,96,79,59,30.19,30.05,2,0,5,0.00
2013-6-23,90,76,64,72,68,63,96,77,48,30.14,30.02,2,0,6,0.00
2013-6-24,90,77,65,72,67,63,96,75,46,30.11,29.97,2,0,7,0.00
2013-6-25,89,76,66,74,67,62,95,77,50,30.03,29.84,4,0,9,0.38
2013-6-26,82,72,65,72,68,64,96,86,62,29.97,29.80,2,0,5,1.76
2013-6-27,77,70,66,73,68,64,96,93,83,29.80,29.61,1,0,5,0.67
2013-6-28,77,68,62,71,65,61,97,91,74,29.64,29.47,3,0,5,0.21
2013-6-29,79,69,60,69,64,59,97,85,62,29.68,29.53,2,0,6,0.00
2013-6-30,84,70,60,71,65,59,97,86,57,29.83,29.67,3,0,9,0.29
2013-7-1,78,70,66,69,66,64,96,88,69,29.94,29.80,1,0,4,0.35
2013-7-2,83,74,67,75,69,65,96,86,65,30.05,29.92,1,0,6,0.13
2013-7-3,86,76,67,73,69,65,96,80,58,30.15,30.04,3,0,9,0.00
2013-7-4,84,75,68,73,69,67,96,83,60,30.20,30.09,3,0,8,0.12
2013-7-5,86,75,67,74,70,66,97,84,62,30.15,30.07,2,0,5,0.00
2013-7-6,88,77,68,75,71,67,97,83,56,30.16,30.00,2,0,5,0.16
2013-7-7,78,73,69,72,69,67,94,87,73,30.09,29.99,1,0,5,0.06
2013-7-8,83,73,65,73,68,63,96,85,63,30.11,30.02,2,0,5,0.11
2013-7-9,80,72,68,76,70,66,96,93,84,30.09,29.94,1,0,4,0.57
2013-7-10,85,72,65,79,70,64,97,93,74,30.00,29.79,5,0,12,1.38
2013-7-11,78,69,61,66,63,58,97,83,57,29.99,29.87,1,0,5,0.00
2013-7-12,76,66,57,68,62,56,95,85,64,30.11,29.98,2,0,5,0.00
2013-7-13,82,73,61,70,65,59,95,79,61,30.22,30.08,2,0,7,0.00
2013-7-14,88,78,68,73,69,66,95,77,53,30.28,30.20,3,0,7,0.00
2013-7-15,90,77,67,75,70,66,96,81,51,30.32,30.21,2,0,5,0.00
2013-7-16,92,77,70,77,72,68,96,86,55,30.30,30.20,3,0,6,0.66
2013-7-17,89,75,69,79,72,68,97,91,65,30.29,30.14,3,0,10,0.67
2013-7-18,91,78,69,81,74,68,97,89,62,30.17,30.00,1,0,4,0.07
2013-7-19,92,79,72,79,74,70,97,85,59,30.01,29.83,2,0,8,0.03
2013-7-20,84,75,69,75,70,67,95,87,70,29.90,29.82,2,0,8,0.13
2013-7-21,84,72,67,74,68,65,96,88,64,29.95,29.88,3,0,8,1.21
2013-7-22,81,71,64,74,68,63,97,92,72,29.94,29.76,3,0,6,1.22
2013-7-23,82,73,68,72,68,66,97,87,66,29.77,29.68,1,0,7,0.03
2013-7-24,71,66,58,60,57,54,92,74,59,29.99,29.88,1,0,4,0.00
2013-7-25,64,55,52,55,52,50,95,90,72,30.05,29.99,1,0,3,0.00
2013-7-26,65,63,61,60,59,58,92,88,82,30.01,29.99,0,0,3,0.00
2013-7-27,72,65,58,68,63,57,97,93,85,30.00,29.84,2,0,6,0.76
2013-7-28,77,67,57,67,62,55,97,84,56,30.03,29.84,1,0,7,0.14
2013-7-29,75,63,52,62,56,51,97,81,53,30.20,30.03,2,0,8,0.00
2013-7-30,76,64,52,64,58,50,97,82,55,30.25,30.15,2,0,4,0.00
2013-7-31,80,67,56,68,62,55,97,87,55,30.16,29.95,2,0,6,0.02
2013-8-1,79,70,64,71,65,62,97,86,62,29.95,29.84,2,0,6,0.08
2013-8-2,78,68,58,66,61,55,97,80,50,29.98,29.89,2,0,7,0.00
2013-8-3,76,67,58,69,64,56,96,90,76,29.99,29.91,2,0,5,0.19
2013-8-4,75,63,53,62,57,52,97,81,55,30.09,29.98,2,0,6,0.02
2013-8-5,74,62,51,62,56,50,97,81,48,30.14,30.02,2,0,5,0.00
2013-8-6,80,66,54,63,58,53,96,77,45,30.04,29.96,2,0,5,0.00
2013-8-7,84,69,60,74,66,59,97,88,62,30.00,29.90,2,0,5,0.10
2013-8-8,85,74,65,76,70,63,97,88,70,29.97,29.88,2,0,8,0.00
2013-8-9,79,73,65,75,70,63,96,92,80,30.00,29.86,1,0,8,0.14
2013-8-10,80,70,62,69,64,61,97,85,61,30.08,29.99,1,0,4,0.00
2013-8-11,82,70,60,70,64,59,96,83,57,30.12,30.00,1,0,6,0.10
2013-8-12,82,72,65,70,67,64,97,85,60,30.05,29.86,1,0,5,0.00
2013-8-13,80,70,57,70,63,51,94,79,55,29.97,29.77,2,0,7,0.00
2013-8-14,68,58,49,57,52,48,96,83,62,30.16,29.96,2,0,6,0.00
2013-8-15,73,59,46,58,51,45,97,78,44,30.21,30.10,2,0,6,0.00
2013-8-16,78,63,52,62,56,50,96,78,44,30.17,30.12,2,0,4,0.00
2013-8-17,78,65,53,61,57,52,97,77,42,30.26,30.17,3,0,8,0.00
2013-8-18,73,66,61,66,62,58,95,87,72,30.22,30.13,2,0,4,0.02
2013-8-19,76,68,62,70,65,60,97,91,75,30.15,30.05,1,0,3,0.14
2013-8-20,82,67,55,68,61,54,97,83,49,30.19,30.10,2,0,4,0.00
2013-8-21,85,70,56,70,63,55,97,81,46,30.20,30.04,2,0,5,0.00
2013-8-22,83,72,65,74,68,63,96,89,68,30.09,29.96,2,0,5,0.60
2013-8-23,80,70,63,68,64,58,97,85,54,30.13,29.97,2,0,5,0.02
2013-8-24,80,66,55,66,59,53,97,80,51,30.29,30.13,2,0,5,0.00
2013-8-25,82,67,54,66,60,53,97,81,46,30.37,30.23,2,0,4,0.00
2013-8-26,85,71,58,70,64,56,97,81,51,30.25,30.01,1,0,5,0.00
2013-8-27,81,74,69,74,70,66,95,87,75,30.01,29.91,2,0,6,0.01
2013-8-28,76,72,69,74,70,67,97,95,85,29.93,29.80,2,0,4,1.02
2013-8-29,84,73,67,72,69,66,97,86,62,30.02,29.90,1,0,3,0.00
2013-8-30,86,73,62,75,68,61,97,86,59,30.00,29.81,2,0,7,0.00
2013-8-31,86,75,69,74,70,68,97,87,58,29.84,29.74,2,0,7,0.00
2013-9-1,77,72,70,73,70,68,96,93,85,29.83,29.75,1,0,3,0.15
2013-9-2,84,73,66,74,70,64,97,89,66,29.83,29.71,2,0,5,0.13
2013-9-3,73,65,58,64,59,56,97,83,59,30.04,29.81,2,0,6,0.01
2013-9-4,76,62,51,62,57,50,97,83,54,30.13,30.03,2,0,7,0.00
2013-9-5,74,64,54,62,56,49,97,78,50,30.21,30.06,2,0,7,0.00
2013-9-6,72,58,45,53,48,39,96,73,35,30.28,30.14,2,0,6,0.00
2013-9-7,78,61,45,61,53,44,97,78,41,30.14,29.95,2,0,5,0.00
2013-9-8,78,68,60,69,62,58,94,83,67,30.05,29.91,1,0,5,0.00
2013-9-9,82,67,56,72,63,54,96,88,66,30.10,29.99,3,0,6,1.87
2013-9-10,88,75,66,79,72,65,97,88,68,30.11,30.03,2,0,6,0.01
2013-9-11,85,75,70,79,72,69,97,91,74,30.13,29.99,2,0,16,0.26
2013-9-12,77,70,61,73,68,60,97,95,82,29.99,29.78,1,0,4,0.61
2013-9-13,67,59,52,61,55,47,97,86,66,30.03,29.80,2,0,6,0.21
2013-9-14,63,54,48,52,48,44,95,79,52,30.18,30.03,2,0,5,0.00
2013-9-15,69,56,43,60,51,42,97,84,57,30.22,30.07,2,0,6,0.00
2013-9-16,69,60,53,59,55,49,97,84,61,30.31,30.08,1,0,5,0.23
2013-9-17,67,56,45,54,48,44,95,77,47,30.41,30.27,2,0,6,0.00
2013-9-18,73,56,43,58,50,41,96,81,49,30.28,30.12,2,0,4,0.00
2013-9-19,77,64,56,65,60,54,95,85,59,30.15,30.02,2,0,4,0.00
2013-9-20,80,68,56,72,64,55,97,88,69,30.04,29.82,2,0,8,0.00
2013-9-21,71,64,57,67,62,56,97,94,83,29.83,29.66,3,0,7,0.97
2013-9-22,63,56,52,56,52,48,97,84,59,30.03,29.79,1,0,5,0.01
2013-9-23,57,52,43,50,46,41,95,81,62,30.17,30.02,1,0,5,0.00
2013-9-24,67,51,38,51,44,37,97,80,43,30.15,29.99,2,0,4,0.00
2013-9-25,73,56,44,57,49,43,97,81,42,30.01,29.89,2,0,6,0.00
2013-9-26,76,59,46,57,50,44,97,78,37,30.09,29.95,2,0,4,0.00
2013-9-27,75,59,46,57,52,44,97,79,46,30.20,30.08,2,0,7,0.00
2013-9-28,72,59,47,58,52,46,97,79,54,30.27,30.16,3,0,7,0.00
2013-9-29,74,59,47,62,53,45,96,83,56,30.17,30.00,2,0,5,0.00
2013-9-30,70,60,51,64,56,49,97,89,75,30.07,29.98,0,0,0,0.00
2013-10-1,78,65,58,65,60,56,97,85,59,30.08,29.99,1,0,4,0.00
2013-10-2,80,65,55,68,61,54,97,86,60,30.10,30.02,0,0,0,0.00
2013-10-3,77,66,56,71,63,55,97,91,71,30.10,30.00,0,0,0,0.04
2013-10-4,81,69,62,70,66,62,97,89,62,30.10,30.01,0,0,1,0.05
2013-10-5,80,68,62,72,66,61,98,92,72,30.08,29.97,1,0,3,0.72
2013-10-6,83,71,63,71,65,60,98,82,57,29.98,29.74,3,0,9,0.01
2013-10-7,70,58,46,62,52,44,94,81,63,30.14,29.67,2,0,7,0.33
2013-10-8,65,51,40,51,45,39,97,82,51,30.33,30.13,2,0,6,0.00
2013-10-9,68,52,39,51,44,38,97,76,41,30.36,30.26,4,0,7,0.00
2013-10-10,70,56,44,52,46,42,94,73,41,30.26,30.11,2,0,5,0.00
2013-10-11,61,56,52,58,53,48,94,88,76,30.11,30.06,1,0,4,0.09
2013-10-12,72,62,54,63,57,51,96,85,68,30.16,30.07,2,0,5,0.01
2013-10-13,70,62,57,62,58,54,94,85,71,30.26,30.15,2,0,5,0.04
2013-10-14,62,60,58,58,57,56,94,92,87,30.30,30.23,1,0,3,0.03
2013-10-15,71,60,50,62,56,48,97,87,68,30.23,29.98,2,0,6,0.00
2013-10-16,63,58,54,61,57,52,96,95,90,29.99,29.87,1,0,4,0.23
2013-10-17,62,56,50,61,53,48,95,90,78,29.92,29.67,2,0,8,0.54
2013-10-18,63,52,43,49,46,41,96,82,51,30.04,29.90,2,0,9,0.00
2013-10-19,55,45,37,49,42,36,97,90,75,30.00,29.77,2,0,7,0.06
2013-10-20,59,46,37,44,40,36,96,81,50,30.07,29.97,2,0,7,0.00
2013-10-21,66,49,35,46,40,34,96,74,35,30.09,29.87,3,0,6,0.00
2013-10-22,53,47,40,49,39,30,93,76,48,29.98,29.85,2,0,6,0.15
2013-10-23,43,40,35,41,38,34,95,90,79,29.96,29.78,2,0,4,0.17
2013-10-24,47,39,32,36,34,30,96,83,53,30.18,29.95,2,0,7,0.00
2013-10-25,48,39,31,37,33,30,95,81,52,30.37,30.18,2,0,5,0.00
2013-10-26,51,41,31,36,31,27,92,69,42,30.29,29.93,3,1,10,0.01
2013-10-27,52,42,31,38,34,29,96,76,48,30.14,30.00,2,0,6,0.00
2013-10-28,58,42,28,41,34,27,96,77,39,30.32,30.13,2,0,5,0.00
2013-10-29,60,45,32,43,38,31,96,79,47,30.41,30.29,2,0,4,0.00
2013-10-30,64,51,41,54,46,39,94,83,57,30.29,30.12,2,0,4,0.00
2013-10-31,67,61,56,61,57,54,96,88,73,30.12,29.47,3,1,8,0.18
2013-11-1,67,58,50,59,50,45,93,76,52,29.70,29.33,3,1,11,0.07
2013-11-2,54,49,44,47,44,41,93,84,65,29.97,29.66,2,0,6,0.05
2013-11-3,48,41,29,42,34,26,95,78,52,30.49,29.97,2,0,8,0.00
2013-11-4,46,37,27,29,25,22,90,64,39,30.60,30.47,3,0,6,0.00
2013-11-5,59,46,34,37,32,26,87,61,38,30.55,30.36,2,0,7,0.00
2013-11-6,72,54,33,57,44,30,94,72,46,30.36,29.93,3,0,9,0.00
2013-11-7,59,46,38,56,42,27,95,83,58,30.14,29.86,3,1,10,0.10
2013-11-8,46,38,28,33,30,25,91,74,50,30.33,30.10,2,0,8,0.00
2013-11-9,56,41,26,34,29,24,95,66,32,30.33,30.00,3,0,7,0.00
2013-11-10,52,44,34,39,34,30,85,67,49,30.30,29.99,3,1,7,0.00
2013-11-11,50,40,29,39,32,27,95,74,48,30.31,30.07,3,0,8,0.00
2013-11-12,36,32,27,33,26,19,93,80,53,30.51,30.13,3,0,7,0.01
2013-11-13,38,30,23,26,24,21,94,77,53,30.57,30.42,2,0,7,0.01
2013-11-14,48,35,25,28,24,22,88,68,38,30.42,30.22,2,0,7,0.00
2013-11-15,57,42,29,38,29,24,85,62,28,30.27,30.16,3,0,7,0.00
2013-11-16,61,50,35,50,43,34,95,78,61,30.27,30.05,2,0,5,0.00
2013-11-17,60,56,52,58,54,46,95,91,77,30.05,29.54,4,0,9,0.17
2013-11-18,57,49,40,53,37,27,92,66,44,30.07,29.62,3,1,12,0.01
2013-11-19,40,35,26,29,26,24,90,70,60,30.45,30.07,2,0,7,0.00
2013-11-20,48,35,22,25,20,13,94,60,25,30.53,30.41,4,1,8,0.00
2013-11-21,55,43,29,42,32,20,83,65,48,30.48,30.25,2,0,5,0.00
2013-11-22,54,49,38,52,46,33,96,90,76,30.26,30.07,3,0,8,0.00
2013-11-23,41,32,21,33,25,10,94,75,53,30.38,30.15,3,1,8,0.01
2013-11-24,22,19,15,15,12,10,83,75,65,30.58,30.38,2,1,9,0.00
2013-11-25,36,26,14,21,14,10,85,63,34,30.57,30.27,2,0,7,0.00
2013-11-26,36,34,32,33,31,20,96,92,53,30.28,29.75,1,0,3,0.01
2013-11-27,34,30,24,33,26,18,95,87,73,30.17,29.75,3,1,10,0.00
2013-11-28,31,26,18,24,19,14,87,75,58,30.48,30.17,2,0,5,0.00
2013-11-29,36,28,21,25,22,19,93,78,57,30.71,30.47,2,0,5,0.00
2013-11-30,41,30,22,27,23,19,91,76,52,30.68,30.28,2,0,6,0.00
2013-12-1,46,36,25,35,31,23,94,82,59,30.27,30.01,1,0,4,0.00
2013-12-2,50,41,36,39,35,32,92,81,62,30.01,29.85,1,0,4,0.00
2013-12-3,54,41,36,44,38,35,96,88,65,29.95,29.87,1,0,4,0.01
2013-12-4,60,46,33,50,42,32,97,86,66,30.03,29.90,1,0,3,0.00
2013-12-5,64,55,41,58,52,39,97,88,74,30.06,29.86,2,0,6,0.59
2013-12-6,41,35,30,38,33,28,95,92,88,30.32,30.02,1,0,6,0.00
2013-12-7,33,27,17,28,22,15,93,84,67,30.65,30.30,1,0,4,0.01
2013-12-8,32,24,17,30,21,14,94,86,78,30.65,30.13,2,0,7,0.00
2013-12-9,38,34,31,36,32,25,96,90,79,30.18,30.01,1,0,5,0.01
2013-12-10,31,27,21,26,21,13,92,78,57,30.31,30.07,1,0,5,0.00
2013-12-11,31,24,17,23,17,13,86,75,56,30.42,30.28,2,0,7,0.00
2013-12-12,23,20,13,16,10,6,84,67,52,30.53,30.32,2,0,10,0.00
2013-12-13,36,26,19,24,16,9,85,67,50,30.32,30.25,1,0,5,0.00
2013-12-14,35,32,27,34,29,23,95,90,74,30.30,29.69,1,0,8,0.00
2013-12-15,37,31,22,36,27,12,96,85,65,30.07,29.66,3,1,8,0.00
2013-12-16,26,23,20,22,17,13,86,76,68,30.23,30.07,3,0,9,0.00
2013-12-17,35,30,25,32,27,22,94,88,73,30.10,29.99,1,0,4,0.00
2013-12-18,31,26,19,26,22,16,93,84,70,30.25,30.07,1,0,4,0.00
2013-12-19,50,35,22,36,29,20,93,78,52,30.17,30.07,1,0,4,0.00
2013-12-20,53,46,32,50,40,30,94,82,63,30.07,29.91,1,0,6,0.00
2013-12-21,60,56,52,59,54,49,97,94,88,29.92,29.64,2,0,6,0.00
2013-12-22,64,59,53,60,55,49,96,89,84,29.94,29.55,5,1,11,0.00
2013-12-23,54,41,32,50,37,23,95,86,70,30.31,29.94,2,0,8,0.00
2013-12-24,32,25,14,26,17,10,89,73,54,30.58,30.26,3,1,9,0.00
2013-12-25,27,20,12,24,14,9,90,78,63,30.58,30.30,2,0,5,0.00
2013-12-26,38,30,22,30,25,18,93,81,59,30.40,30.20,2,0,7,0.00
2013-12-27,42,30,21,30,25,18,90,79,57,30.42,30.31,1,0,7,0.00
2013-12-28,53,38,26,35,29,23,88,72,48,30.32,30.10,2,0,7,0.00
2013-12-29,42,39,36,41,36,29,96,90,76,30.10,29.69,1,0,4,0.00
2013-12-30,40,28,23,38,24,18,94,84,76,30.23,29.86,2,0,7,0.00
2013-12-31,27,25,22,24,20,16,91,83,72,30.37,30.13,2,0,8,0.00
2014-1-1,36,29,25,28,24,20,88,81,71,30.38,30.09,1,0,5,0.00
2014-1-2,31,26,12,28,23,8,92,87,82,30.10,29.72,2,0,5,0.00